Time;durP1;ratioP1;P1;durP2;ratioP2;P2;SDS_P1;SDS_P2;PMS_P1;PMS_P2;Temp;Humidity;BMP_temperature;BMP_pressure;BME280_temperature;BME280_humidity;BME280_pressure;Samples;Min_cycle;Max_cycle;Signal;HPM_P1;HPM_P2
2022/12/15 00:40:38;;;;;;;24.30;15.93;;;-2.80;36.90;;;;;;4994782;28;20325;-48
2022/12/15 00:43:04;;;;;;;29.47;17.70;;;-2.90;36.80;;;;;;4994284;28;20266;-48
2022/12/15 00:48:14;;;;;;;28.50;16.88;;;-2.90;36.70;;;;;;4994698;28;20409;-47
2022/12/15 00:50:52;;;;;;;26.40;19.10;;;-3.00;36.60;;;;;;4994194;28;20219;-48
2022/12/15 01:21:03;;;;;;;34.55;18.15;;;-3.30;36.40;;;;;;4994091;28;20196;-49
2022/12/15 01:23:30;;;;;;;28.00;17.35;;;-3.30;36.60;;;;;;4993797;28;20167;-47
2022/12/15 01:25:56;;;;;;;36.25;18.35;;;-3.30;36.50;;;;;;4993719;28;20715;-48
2022/12/15 01:28:23;;;;;;;25.23;16.27;;;-3.40;36.30;;;;;;4993719;28;20190;-47
2022/12/15 01:30:49;;;;;;;32.55;18.60;;;-3.50;36.20;;;;;;4993735;28;20465;-47
2022/12/15 01:33:16;;;;;;;30.98;16.45;;;-3.50;36.50;;;;;;4993184;28;20679;-47
2022/12/15 01:35:42;;;;;;;38.80;19.70;;;-3.50;36.60;;;;;;4993725;28;20190;-47
2022/12/15 01:38:09;;;;;;;36.67;19.40;;;-3.50;37.10;;;;;;4993610;28;20184;-47
2022/12/15 01:40:44;;;;;;;32.15;19.10;;;-3.40;37.30;;;;;;4993262;28;20676;-48
2022/12/15 01:43:22;;;;;;;34.83;17.50;;;-3.30;37.60;;;;;;4993435;28;20163;-47
2022/12/15 01:46:06;;;;;;;33.78;19.70;;;-3.30;37.50;;;;;;4993282;28;20671;-47
2022/12/15 01:48:58;;;;;;;33.10;17.88;;;-3.20;37.80;;;;;;4974938;28;20550;-47
2022/12/15 01:51:36;;;;;;;33.33;20.15;;;-3.00;37.80;;;;;;4993506;28;20164;-47
2022/12/15 01:54:02;;;;;;;29.63;16.98;;;-2.90;38.00;;;;;;4992898;28;20191;-47
2022/12/15 01:56:32;;;;;;;39.30;19.23;;;-2.80;38.00;;;;;;4993032;28;20186;-47
2022/12/15 01:59:01;;;;;;;35.55;20.00;;;-2.70;38.30;;;;;;4993023;28;20768;-47
2022/12/15 02:01:28;;;;;;;30.00;16.65;;;-2.60;38.40;;;;;;4993352;28;20240;-47
2022/12/15 02:03:55;;;;;;;32.53;18.45;;;-2.60;38.20;;;;;;4992741;28;20206;-47
2022/12/15 02:06:23;;;;;;;36.60;20.83;;;-2.50;38.50;;;;;;4992915;28;20208;-48
2022/12/15 02:08:53;;;;;;;35.80;20.42;;;-2.40;38.60;;;;;;4992844;28;20187;-47
2022/12/15 02:11:31;;;;;;;36.65;20.38;;;-2.30;38.80;;;;;;4993052;28;20183;-48
2022/12/15 02:14:03;;;;;;;41.28;19.10;;;-2.20;38.70;;;;;;4992629;28;20290;-47
2022/12/15 02:16:40;;;;;;;33.50;19.70;;;-2.10;38.80;;;;;;4992729;28;20228;-47
2022/12/15 02:19:30;;;;;;;41.00;23.17;;;-1.90;38.80;;;;;;4992992;28;20190;-47
2022/12/15 02:22:06;;;;;;;39.55;22.42;;;-1.80;38.80;;;;;;4992853;28;20201;-47
2022/12/15 02:24:50;;;;;;;33.88;19.27;;;-1.80;38.70;;;;;;4992950;28;20557;-48
2022/12/15 02:27:43;;;;;;;37.33;19.75;;;-1.70;38.70;;;;;;4992638;28;20182;-48
2022/12/15 02:30:20;;;;;;;36.03;19.67;;;-1.60;38.80;;;;;;4992702;28;20267;-48
2022/12/15 02:32:57;;;;;;;41.13;21.98;;;-1.50;38.90;;;;;;4992437;28;20649;-47
2022/12/15 02:35:36;;;;;;;36.38;21.88;;;-1.50;38.80;;;;;;4992575;28;20278;-48
2022/12/15 02:38:02;;;;;;;42.63;21.33;;;-1.40;38.60;;;;;;4992771;28;20170;-47
2022/12/15 02:40:28;;;;;;;34.13;19.23;;;-1.40;38.70;;;;;;4992667;28;20212;-48
2022/12/15 02:42:57;;;;;;;26.10;18.40;;;-1.40;38.70;;;;;;4992239;28;20410;-48
2022/12/15 02:45:54;;;;;;;35.63;19.83;;;-1.40;38.60;;;;;;4992772;28;20178;-49
2022/12/15 02:48:38;;;;;;;32.95;20.10;;;-1.40;38.50;;;;;;4986711;28;20186;-47
2022/12/15 02:51:09;;;;;;;33.08;20.58;;;-1.50;38.60;;;;;;4992486;28;20178;-47
2022/12/15 02:53:58;;;;;;;30.73;20.65;;;-1.50;38.70;;;;;;4992300;28;20210;-50
2022/12/15 02:56:41;;;;;;;37.22;20.55;;;-1.50;38.70;;;;;;4992837;28;20187;-48
2022/12/15 02:59:14;;;;;;;32.65;19.83;;;-1.50;38.80;;;;;;4993899;28;20817;-47
2022/12/15 03:01:51;;;;;;;37.58;20.58;;;-1.60;38.70;;;;;;4996315;28;20622;-47
2022/12/15 03:04:18;;;;;;;40.33;20.55;;;-1.60;38.70;;;;;;4996305;28;20928;-47
2022/12/15 03:06:44;;;;;;;37.13;21.55;;;-1.60;38.60;;;;;;4996532;28;20180;-48
2022/12/15 03:09:09;;;;;;;39.10;22.87;;;-1.60;38.70;;;;;;4996044;28;20553;-47
2022/12/15 03:11:36;;;;;;;37.20;20.30;;;-1.60;38.90;;;;;;4996452;28;20211;-48
2022/12/15 03:14:02;;;;;;;40.58;20.23;;;-1.60;38.80;;;;;;4995933;28;20453;-48
2022/12/15 03:16:28;;;;;;;29.92;19.05;;;-1.60;38.80;;;;;;4996029;28;20185;-47
2022/12/15 03:18:54;;;;;;;43.73;20.47;;;-1.50;38.80;;;;;;4996088;28;20266;-47
2022/12/15 03:21:19;;;;;;;42.40;23.20;;;-1.50;38.80;;;;;;4995886;28;20537;-48
2022/12/15 03:23:45;;;;;;;34.10;18.97;;;-1.50;38.70;;;;;;4995600;28;20234;-47
2022/12/15 03:26:11;;;;;;;34.50;20.00;;;-1.50;38.70;;;;;;4995892;28;20178;-47
2022/12/15 03:28:37;;;;;;;34.67;20.37;;;-1.50;38.60;;;;;;4995861;28;20198;-48
2022/12/15 03:31:03;;;;;;;36.67;22.73;;;-1.50;38.60;;;;;;4995898;28;20797;-48
2022/12/15 03:33:28;;;;;;;31.80;18.30;;;-1.50;38.60;;;;;;4995514;28;20310;-47
2022/12/15 03:35:54;;;;;;;36.67;20.63;;;-1.50;38.90;;;;;;4995838;28;20178;-47
2022/12/15 03:38:20;;;;;;;44.92;22.05;;;-1.50;38.90;;;;;;4995543;28;20176;-47
2022/12/15 03:40:46;;;;;;;37.70;21.50;;;-1.50;38.90;;;;;;4995693;28;20254;-49
2022/12/15 03:43:11;;;;;;;33.27;18.73;;;-1.50;39.40;;;;;;4995574;28;20167;-47
2022/12/15 03:45:37;;;;;;;45.37;23.20;;;-1.40;38.70;;;;;;4995582;28;20172;-47
2022/12/15 03:48:03;;;;;;;37.63;21.67;;;-1.40;38.70;;;;;;4995677;28;20180;-48
2022/12/15 03:50:29;;;;;;;35.50;22.07;;;-1.40;38.80;;;;;;4995417;28;20245;-48
2022/12/15 03:52:58;;;;;;;32.40;20.48;;;-1.40;38.90;;;;;;4995198;28;20437;-48
2022/12/15 03:55:24;;;;;;;38.03;21.38;;;-1.40;38.80;;;;;;5038597;23;20668;-47
2022/12/15 03:57:51;;;;;;;40.72;23.98;;;-1.30;38.90;;;;;;5033827;28;20170;-46
2022/12/15 04:00:18;;;;;;;39.05;23.58;;;-1.30;38.80;;;;;;5034689;28;20194;-48
2022/12/15 04:02:45;;;;;;;41.08;22.80;;;-1.30;38.90;;;;;;5034492;28;20174;-47
2022/12/15 04:05:18;;;;;;;35.95;21.27;;;-1.30;38.90;;;;;;5032306;28;20193;-47
2022/12/15 04:07:44;;;;;;;38.05;19.58;;;-1.30;38.90;;;;;;5014702;28;20171;-46
2022/12/15 04:10:11;;;;;;;40.23;21.33;;;-1.40;38.80;;;;;;5013940;28;20314;-46
2022/12/15 04:12:40;;;;;;;36.47;21.58;;;-1.40;38.80;;;;;;5014505;28;20166;-47
2022/12/15 04:15:07;;;;;;;40.03;20.67;;;-1.30;38.90;;;;;;5014531;28;20541;-47
2022/12/15 04:17:33;;;;;;;34.45;19.77;;;-1.40;38.80;;;;;;5014530;28;20163;-47
2022/12/15 04:20:08;;;;;;;36.35;21.00;;;-1.40;38.80;;;;;;5014526;28;20175;-47
2022/12/15 04:22:35;;;;;;;41.83;21.45;;;-1.40;38.80;;;;;;5014287;28;20177;-47
2022/12/15 05:33:27;;;;;;;27.58;17.08;;;-2.40;38.10;;;;;;5012938;28;20371;-47
2022/12/15 05:35:56;;;;;;;37.13;21.97;;;-2.40;38.10;;;;;;5012970;28;20221;-47
2022/12/15 05:38:22;;;;;;;36.97;20.02;;;-2.40;38.60;;;;;;5013014;28;20171;-46
2022/12/15 05:40:48;;;;;;;35.57;21.73;;;-2.50;37.80;;;;;;5013043;28;20171;-46
2022/12/15 05:43:14;;;;;;;31.77;19.97;;;-2.50;37.80;;;;;;5012811;28;20180;-47
2022/12/15 05:45:39;;;;;;;35.03;19.47;;;-2.50;37.90;;;;;;5012784;28;20614;-47
2022/12/15 05:48:05;;;;;;;36.90;19.63;;;-2.60;37.60;;;;;;5012898;28;20550;-46
2022/12/15 05:50:31;;;;;;;33.70;19.03;;;-2.70;37.70;;;;;;5012896;28;20539;-46
2022/12/15 05:52:58;;;;;;;32.40;18.07;;;-2.70;37.70;;;;;;5012695;28;20224;-47
2022/12/15 05:55:24;;;;;;;39.33;19.50;;;-2.80;37.70;;;;;;5012573;28;20213;-46
2022/12/15 05:57:51;;;;;;;36.27;22.77;;;-2.80;38.00;;;;;;5012860;28;20162;-47
2022/12/15 06:00:17;;;;;;;36.45;19.08;;;-2.80;38.00;;;;;;5012625;28;20166;-46
2022/12/15 06:02:43;;;;;;;33.20;18.58;;;-2.80;38.10;;;;;;5012475;28;20179;-47
2022/12/15 06:05:09;;;;;;;40.57;19.30;;;-2.80;38.00;;;;;;5012747;28;20174;-46
2022/12/15 06:07:36;;;;;;;37.93;20.03;;;-2.80;37.70;;;;;;5012631;28;20179;-46
2022/12/15 06:10:02;;;;;;;32.25;18.73;;;-2.80;37.80;;;;;;5012517;28;20644;-46
2022/12/15 06:12:28;;;;;;;32.55;19.83;;;-2.90;38.00;;;;;;5012266;28;20178;-46
2022/12/15 06:14:53;;;;;;;38.93;19.43;;;-2.90;38.00;;;;;;5012398;28;20207;-46
2022/12/15 06:17:19;;;;;;;35.00;19.30;;;-2.80;38.00;;;;;;5012452;28;20200;-46
2022/12/15 06:19:45;;;;;;;31.23;17.97;;;-2.80;38.00;;;;;;5012304;28;20532;-47
2022/12/15 06:22:11;;;;;;;33.60;19.77;;;-2.80;38.00;;;;;;5012021;28;20781;-47
2022/12/15 06:24:37;;;;;;;31.90;18.93;;;-2.80;38.00;;;;;;5012474;28;20409;-47
2022/12/15 06:27:03;;;;;;;34.45;18.10;;;-2.90;37.90;;;;;;5012246;28;20586;-47
2022/12/15 06:29:29;;;;;;;40.22;21.42;;;-2.90;37.90;;;;;;5012229;28;20183;-46
2022/12/15 06:31:55;;;;;;;32.93;22.90;;;-2.90;37.90;;;;;;5012156;28;20207;-46
2022/12/15 06:34:20;;;;;;;43.43;22.50;;;-2.90;37.70;;;;;;5011669;28;20285;-46
2022/12/15 06:36:46;;;;;;;36.40;18.67;;;-2.90;37.60;;;;;;5011989;28;20667;-46
2022/12/15 06:39:14;;;;;;;32.10;18.73;;;-3.00;37.20;;;;;;5012225;28;20158;-47
2022/12/15 06:41:41;;;;;;;43.80;20.50;;;-3.10;37.70;;;;;;5011970;28;20878;-47
2022/12/15 06:44:07;;;;;;;44.95;21.20;;;-3.10;37.70;;;;;;5011973;28;20592;-46
2022/12/15 06:46:33;;;;;;;39.53;22.30;;;-3.10;37.70;;;;;;5011844;28;20248;-46
2022/12/15 06:48:59;;;;;;;26.48;17.92;;;-3.10;37.70;;;;;;5012007;28;20463;-46
2022/12/15 06:51:26;;;;;;;31.70;17.90;;;-3.10;37.70;;;;;;5012043;28;20185;-47
2022/12/15 06:53:55;;;;;;;35.38;19.83;;;-3.10;37.80;;;;;;5011735;28;20195;-47
2022/12/15 06:56:30;;;;;;;30.90;18.63;;;-3.10;37.90;;;;;;5011758;28;20221;-46
2022/12/15 06:58:57;;;;;;;34.35;20.65;;;-3.00;37.90;;;;;;5012040;28;20652;-46
2022/12/15 07:01:23;;;;;;;39.25;21.65;;;-3.00;37.90;;;;;;5011885;28;20169;-46
2022/12/15 07:03:50;;;;;;;39.85;21.73;;;-3.00;38.00;;;;;;5011569;28;20221;-46
2022/12/15 07:06:16;;;;;;;34.13;20.50;;;-3.00;38.00;;;;;;5011801;28;20198;-46
2022/12/15 07:08:46;;;;;;;37.05;22.55;;;-3.00;37.90;;;;;;5011976;28;20182;-47
2022/12/15 07:11:12;;;;;;;36.70;20.30;;;-3.00;37.90;;;;;;5011772;28;20750;-47
2022/12/15 07:13:38;;;;;;;33.13;19.53;;;-3.00;37.70;;;;;;5011632;28;20254;-46
2022/12/15 07:16:06;;;;;;;30.92;20.15;;;-3.00;37.70;;;;;;5012102;28;20825;-47
2022/12/15 07:18:32;;;;;;;37.88;21.05;;;-3.00;37.70;;;;;;5011898;28;20234;-46
2022/12/15 07:21:03;;;;;;;39.70;19.98;;;-3.10;37.50;;;;;;5011878;28;20171;-46
2022/12/15 07:23:29;;;;;;;32.88;20.65;;;-3.10;37.50;;;;;;5011552;28;20170;-46
2022/12/15 07:25:55;;;;;;;32.83;17.10;;;-3.10;37.60;;;;;;5011883;28;20190;-46
2022/12/15 07:28:20;;;;;;;33.93;18.43;;;-3.10;37.40;;;;;;5011709;28;20175;-46
2022/12/15 07:30:47;;;;;;;30.83;17.43;;;-3.10;37.40;;;;;;5011815;28;20224;-46
2022/12/15 07:33:12;;;;;;;38.47;20.65;;;-3.10;37.50;;;;;;5011358;28;20579;-46
2022/12/15 07:35:38;;;;;;;32.80;19.93;;;-3.10;37.50;;;;;;5011558;28;20206;-46
2022/12/15 07:38:07;;;;;;;28.20;18.43;;;-3.10;37.50;;;;;;5011558;28;20174;-46
2022/12/15 07:40:34;;;;;;;37.00;18.55;;;-3.10;37.50;;;;;;5011632;28;20409;-46
2022/12/15 07:42:59;;;;;;;37.00;20.25;;;-3.10;37.50;;;;;;5011357;28;20170;-46
2022/12/15 07:45:25;;;;;;;30.77;19.03;;;-3.10;37.50;;;;;;5011931;28;20197;-46
2022/12/15 07:47:52;;;;;;;30.47;16.87;;;-3.00;37.40;;;;;;5015153;28;20466;-46
2022/12/15 07:50:18;;;;;;;32.85;18.00;;;-3.00;37.60;;;;;;5015109;28;20226;-46
2022/12/15 07:52:45;;;;;;;32.22;19.17;;;-2.90;37.80;;;;;;5014800;28;20175;-46
2022/12/15 07:55:11;;;;;;;32.72;20.10;;;-2.90;37.90;;;;;;5014757;28;20202;-47
2022/12/15 07:57:37;;;;;;;28.95;20.05;;;-2.80;37.90;;;;;;5015056;28;20605;-47
2022/12/15 08:00:06;;;;;;;34.67;19.10;;;-2.70;38.00;;;;;;5014940;28;20274;-46
2022/12/15 08:02:31;;;;;;;32.97;19.75;;;-2.50;38.10;;;;;;5014580;28;20577;-47
2022/12/15 08:04:57;;;;;;;36.97;20.47;;;-2.30;38.50;;;;;;5014763;28;20257;-47
2022/12/15 08:07:23;;;;;;;32.10;20.40;;;-2.10;38.50;;;;;;5014805;28;20187;-47
2022/12/15 08:09:49;;;;;;;38.90;21.30;;;-2.10;38.20;;;;;;5014717;28;20548;-47
2022/12/15 08:12:15;;;;;;;37.10;21.90;;;-2.10;38.10;;;;;;5014419;28;20182;-46
2022/12/15 08:14:41;;;;;;;43.22;22.63;;;-2.10;38.10;;;;;;5014573;28;20715;-47
2022/12/15 08:17:07;;;;;;;34.77;20.70;;;-2.00;38.20;;;;;;5014459;28;20214;-47
2022/12/15 08:19:33;;;;;;;30.67;16.57;;;-2.00;38.20;;;;;;5014484;28;20414;-46
2022/12/15 08:21:58;;;;;;;29.20;18.17;;;-2.00;38.30;;;;;;5014321;28;20178;-46
2022/12/15 08:24:24;;;;;;;29.47;17.67;;;-1.90;38.40;;;;;;5014429;28;20170;-46
2022/12/15 08:26:50;;;;;;;28.13;18.17;;;-1.80;38.50;;;;;;5014422;28;20280;-47
2022/12/15 08:29:16;;;;;;;35.67;20.47;;;-1.60;38.60;;;;;;5014376;28;20198;-47
2022/12/15 08:31:42;;;;;;;31.75;19.80;;;-1.40;38.70;;;;;;5014239;28;20282;-47
2022/12/15 08:34:08;;;;;;;35.47;19.80;;;-1.00;38.80;;;;;;5013992;28;20668;-47
2022/12/15 08:36:34;;;;;;;30.67;18.90;;;-0.80;38.60;;;;;;5014186;28;20213;-47
2022/12/15 08:39:00;;;;;;;32.50;16.43;;;-0.70;38.10;;;;;;5014234;28;20175;-47
2022/12/15 08:41:29;;;;;;;31.30;17.63;;;-0.80;37.80;;;;;;5014129;28;20163;-47
2022/12/15 08:43:56;;;;;;;31.73;18.05;;;-0.80;37.80;;;;;;5013856;28;20182;-46
2022/12/15 08:46:24;;;;;;;32.65;17.70;;;-0.90;37.90;;;;;;5013905;28;20186;-47
2022/12/15 08:48:51;;;;;;;28.10;17.83;;;-0.90;38.10;;;;;;5013848;28;20178;-47
2022/12/15 08:51:17;;;;;;;31.08;16.92;;;-0.70;38.30;;;;;;5013943;28;20170;-47
2022/12/15 08:53:43;;;;;;;30.77;19.17;;;-0.50;38.20;;;;;;5013627;28;20206;-47
2022/12/15 08:56:12;;;;;;;26.70;18.13;;;-0.20;37.90;;;;;;5013318;28;20311;-47
2022/12/15 08:58:38;;;;;;;34.38;19.23;;;0.00;37.60;;;;;;5013851;28;20434;-47
2022/12/15 09:01:07;;;;;;;32.10;19.13;;;0.30;37.50;;;;;;5013846;28;20175;-47
2022/12/15 09:03:34;;;;;;;37.65;21.45;;;0.70;37.20;;;;;;5013426;28;20166;-47
2022/12/15 09:06:10;;;;;;;47.25;22.75;;;1.20;36.80;;;;;;5013657;28;20326;-46
2022/12/15 09:08:36;;;;;;;36.50;21.60;;;1.60;36.50;;;;;;5013647;28;20194;-47
2022/12/15 09:11:01;;;;;;;32.23;19.67;;;1.80;36.00;;;;;;5013578;28;20180;-47
2022/12/15 09:13:28;;;;;;;28.90;18.57;;;1.90;35.10;;;;;;5013298;28;20180;-47
2022/12/15 09:16:13;;;;;;;33.10;18.38;;;2.00;35.30;;;;;;5013251;28;20541;-47
2022/12/15 09:18:45;;;;;;;35.65;17.85;;;2.20;35.40;;;;;;5013492;28;20153;-47
2022/12/15 09:21:12;;;;;;;29.40;18.90;;;2.30;35.50;;;;;;5013517;28;20161;-47
2022/12/15 09:23:38;;;;;;;32.70;20.10;;;2.50;35.70;;;;;;5013099;28;20173;-47
2022/12/15 09:26:10;;;;;;;34.20;20.88;;;2.60;35.50;;;;;;5013274;28;20671;-47
2022/12/15 09:28:39;;;;;;;35.97;19.38;;;2.80;35.10;;;;;;5013262;28;20654;-47
2022/12/15 09:31:07;;;;;;;30.55;19.67;;;2.80;34.10;;;;;;5013201;28;20173;-47
2022/12/15 09:33:33;;;;;;;38.60;21.17;;;2.80;34.30;;;;;;5012974;28;20677;-48
2022/12/15 09:35:58;;;;;;;28.05;18.98;;;2.80;34.50;;;;;;5013149;28;20271;-48
2022/12/15 09:38:24;;;;;;;28.73;17.90;;;3.00;34.30;;;;;;5013175;28;20199;-48
2022/12/15 09:40:50;;;;;;;33.97;20.00;;;3.10;33.50;;;;;;5012971;28;20577;-48
2022/12/15 09:43:24;;;;;;;28.83;18.60;;;3.10;32.90;;;;;;5012833;28;20414;-48
2022/12/15 09:45:54;;;;;;;30.80;18.33;;;3.70;32.80;;;;;;5012796;28;20905;-48
2022/12/15 09:48:23;;;;;;;29.95;19.77;;;4.20;32.40;;;;;;5012997;28;20264;-48
2022/12/15 09:50:53;;;;;;;25.42;17.65;;;4.40;31.30;;;;;;5012957;28;20175;-48
2022/12/15 09:53:24;;;;;;;27.65;17.25;;;4.10;31.70;;;;;;5012538;28;20169;-48
2022/12/15 09:56:03;;;;;;;26.52;17.25;;;3.80;31.80;;;;;;5012576;28;20210;-49
2022/12/15 09:58:54;;;;;;;33.08;17.55;;;3.70;31.50;;;;;;5012812;28;20544;-48
2022/12/15 10:01:53;;;;;;;28.20;17.80;;;3.90;32.60;;;;;;5012685;28;20158;-48
2022/12/15 10:04:46;;;;;;;28.77;17.63;;;4.50;32.10;;;;;;5012660;28;20200;-48
2022/12/15 10:07:23;;;;;;;31.00;19.35;;;5.20;31.40;;;;;;4982780;28;20209;-48
2022/12/15 10:09:49;;;;;;;31.95;17.90;;;5.80;31.00;;;;;;5011828;28;20648;-49
2022/12/15 10:12:28;;;;;;;31.83;17.50;;;6.60;30.20;;;;;;5012228;28;20258;-48
2022/12/15 10:15:04;;;;;;;31.67;19.70;;;7.40;28.90;;;;;;5012415;28;20186;-48
2022/12/15 10:31:24;;;;;;;27.85;17.35;;;8.30;26.40;;;;;;5012274;28;20651;-49
2022/12/15 10:33:56;;;;;;;24.73;17.63;;;8.80;25.30;;;;;;5012058;28;20178;-48
2022/12/15 10:36:22;;;;;;;27.35;16.98;;;9.10;24.60;;;;;;5012215;28;20214;-49
2022/12/15 10:38:48;;;;;;;29.45;17.63;;;9.60;25.20;;;;;;5012141;28;20652;-49
2022/12/15 10:41:17;;;;;;;28.48;17.23;;;10.10;22.90;;;;;;5012148;28;20205;-48
2022/12/15 10:43:46;;;;;;;34.53;19.38;;;10.00;22.30;;;;;;4994230;28;20714;-48
2022/12/15 10:46:23;;;;;;;24.10;16.60;;;10.30;23.60;;;;;;5012080;28;20213;-48
2022/12/15 10:48:51;;;;;;;20.73;14.98;;;10.70;23.40;;;;;;5012221;28;20258;-48
2022/12/15 10:51:30;;;;;;;26.65;18.02;;;10.90;23.00;;;;;;5012078;28;20170;-48
2022/12/15 10:53:59;;;;;;;22.80;16.90;;;10.90;22.60;;;;;;5011776;28;20198;-49
2022/12/15 10:56:27;;;;;;;25.05;17.52;;;10.60;22.30;;;;;;5011761;28;20266;-50
2022/12/15 10:58:55;;;;;;;29.92;18.13;;;10.30;22.80;;;;;;5011963;28;20173;-49
2022/12/15 11:01:27;;;;;;;25.67;16.50;;;10.00;22.90;;;;;;5012054;28;20174;-49
2022/12/15 11:03:54;;;;;;;22.80;16.38;;;9.90;21.60;;;;;;5011749;28;20181;-49
2022/12/15 11:06:22;;;;;;;23.30;15.32;;;9.70;21.10;;;;;;5011927;28;20190;-50
2022/12/15 11:08:51;;;;;;;23.02;15.82;;;9.40;21.60;;;;;;5011978;28;20194;-49
2022/12/15 11:14:19;;;;;;;27.60;14.90;;;8.60;24.00;;;;;;5011694;28;20244;-49
2022/12/15 11:16:49;;;;;;;26.45;15.60;;;8.30;24.50;;;;;;5011786;28;20191;-49
2022/12/15 11:19:27;;;;;;;19.83;15.25;;;8.00;24.70;;;;;;5012049;28;20167;-49
2022/12/15 11:21:58;;;;;;;27.75;14.98;;;7.80;24.80;;;;;;5015739;28;20250;-49
2022/12/15 11:24:33;;;;;;;29.50;18.58;;;7.50;24.00;;;;;;5015688;28;20571;-48
2022/12/15 11:26:59;;;;;;;29.17;18.55;;;7.50;25.50;;;;;;5015441;28;20679;-49
2022/12/15 11:29:52;;;;;;;21.47;14.60;;;8.00;25.90;;;;;;5015575;28;20171;-49
2022/12/15 11:32:25;;;;;;;20.63;14.35;;;9.10;25.20;;;;;;5015400;28;20175;-49
2022/12/15 11:34:51;;;;;;;20.27;15.65;;;10.20;24.10;;;;;;5015433;28;20190;-48
2022/12/15 11:37:27;;;;;;;23.60;15.68;;;10.70;23.70;;;;;;5015189;28;20186;-48
2022/12/15 11:40:04;;;;;;;21.83;15.65;;;10.80;22.80;;;;;;5015427;28;20233;-48
2022/12/15 11:42:48;;;;;;;19.23;13.68;;;10.60;22.10;;;;;;5015085;28;20167;-48
2022/12/15 11:45:23;;;;;;;23.65;15.02;;;10.60;22.10;;;;;;5015120;28;20662;-48
2022/12/15 11:48:10;;;;;;;22.65;13.75;;;10.80;21.80;;;;;;5015111;28;20584;-49
2022/12/15 11:50:55;;;;;;;23.67;14.95;;;10.80;22.10;;;;;;5015215;28;20174;-49
2022/12/15 11:53:32;;;;;;;30.13;17.35;;;10.70;22.00;;;;;;4997321;28;20316;-48
2022/12/15 11:56:35;;;;;;;22.27;17.00;;;10.60;23.00;;;;;;5014728;28;20301;-48
2022/12/15 11:59:31;;;;;;;24.35;16.38;;;10.50;22.20;;;;;;5014939;28;20170;-49
2022/12/15 12:02:21;;;;;;;23.10;16.10;;;10.00;21.80;;;;;;5014731;28;20225;-48
2022/12/15 12:05:02;;;;;;;24.75;15.80;;;9.50;23.10;;;;;;5014915;28;20691;-49
2022/12/15 12:07:44;;;;;;;27.52;17.75;;;9.10;23.70;;;;;;5014817;28;20159;-49
2022/12/15 12:10:29;;;;;;;26.85;16.17;;;8.80;24.50;;;;;;5015011;28;20572;-49
2022/12/15 12:13:03;;;;;;;30.38;18.63;;;8.60;24.80;;;;;;5014470;28;20166;-48
2022/12/15 12:16:00;;;;;;;27.38;19.08;;;8.50;24.50;;;;;;5014469;28;20212;-49
2022/12/15 12:18:45;;;;;;;28.15;19.23;;;8.50;25.20;;;;;;5014580;28;20158;-48
2022/12/15 12:21:12;;;;;;;26.08;17.50;;;8.70;26.20;;;;;;5014502;28;20178;-48
2022/12/15 12:23:41;;;;;;;27.73;16.95;;;8.90;25.10;;;;;;5014357;28;20169;-49
2022/12/15 12:26:45;;;;;;;21.48;16.05;;;8.90;25.10;;;;;;5014354;28;20195;-48
2022/12/15 12:29:43;;;;;;;25.80;17.15;;;8.60;25.00;;;;;;4934695;29;20174;-49
2022/12/15 12:32:43;;;;;;;22.42;14.80;;;8.40;25.20;;;;;;5013490;28;20246;-48
2022/12/15 12:35:54;;;;;;;19.02;15.25;;;8.30;25.80;;;;;;4947020;28;20250;-49
2022/12/15 12:38:28;;;;;;;20.33;14.35;;;8.40;25.50;;;;;;4994099;28;20690;-47
2022/12/15 12:41:05;;;;;;;25.10;15.82;;;8.90;26.30;;;;;;5014236;28;20174;-48
2022/12/15 12:43:34;;;;;;;25.48;16.30;;;9.80;26.50;;;;;;5014002;28;20254;-49
2022/12/15 12:46:21;;;;;;;27.50;17.45;;;10.30;24.70;;;;;;5013966;28;20695;-49
2022/12/15 12:49:23;;;;;;;27.33;17.88;;;10.80;24.20;;;;;;5013951;28;20160;-48
2022/12/15 12:51:54;;;;;;;27.00;15.93;;;10.50;21.70;;;;;;5013747;28;20685;-48
2022/12/15 12:54:35;;;;;;;24.63;17.48;;;10.10;22.80;;;;;;5013795;28;20201;-48
2022/12/15 12:57:10;;;;;;;24.88;15.60;;;9.60;21.90;;;;;;5013648;28;20209;-48
2022/12/15 13:00:20;;;;;;;27.25;16.85;;;9.00;22.90;;;;;;5013856;28;20162;-49
2022/12/15 13:02:55;;;;;;;24.17;16.23;;;8.90;24.60;;;;;;4993086;28;20218;-49
2022/12/15 13:05:21;;;;;;;21.45;16.58;;;9.30;24.70;;;;;;5013719;28;20240;-49
2022/12/15 13:07:55;;;;;;;25.00;16.80;;;9.80;24.40;;;;;;5013644;28;20521;-49
2022/12/15 13:10:23;;;;;;;30.50;18.35;;;9.90;23.40;;;;;;5013591;28;20424;-49
2022/12/15 13:13:00;;;;;;;22.50;15.65;;;9.80;23.50;;;;;;5013433;28;20671;-49
2022/12/15 13:15:41;;;;;;;23.23;16.02;;;9.60;24.00;;;;;;5013410;28;20205;-49
2022/12/15 13:18:15;;;;;;;25.55;16.63;;;9.50;23.40;;;;;;5013560;28;20242;-49
2022/12/15 13:20:41;;;;;;;26.20;17.70;;;9.50;25.10;;;;;;5013383;28;20169;-48
2022/12/15 13:23:22;;;;;;;26.45;18.13;;;9.50;24.30;;;;;;5013171;28;20173;-49
2022/12/15 13:25:57;;;;;;;23.55;15.63;;;9.50;24.40;;;;;;5013289;28;20199;-48
2022/12/15 13:28:35;;;;;;;22.92;14.07;;;9.60;24.10;;;;;;5013249;28;20646;-49
2022/12/15 13:31:16;;;;;;;23.48;16.35;;;9.80;23.40;;;;;;5013294;28;20233;-48
2022/12/15 13:33:55;;;;;;;24.23;17.65;;;9.80;23.70;;;;;;5012812;28;20675;-49
2022/12/15 13:36:38;;;;;;;20.02;14.50;;;9.70;23.40;;;;;;5013333;28;20203;-49
2022/12/15 13:39:16;;;;;;;21.88;15.88;;;9.60;23.30;;;;;;5013065;28;20177;-49
2022/12/15 13:41:47;;;;;;;22.70;15.30;;;9.30;23.40;;;;;;5012959;28;20171;-50
2022/12/15 13:44:42;;;;;;;25.95;16.92;;;9.00;23.40;;;;;;5011856;28;20175;-50
2022/12/15 13:47:15;;;;;;;23.13;15.65;;;8.50;23.70;;;;;;5012896;28;20282;-48
2022/12/15 13:49:47;;;;;;;29.77;19.95;;;8.00;24.90;;;;;;5012891;28;20256;-48
2022/12/15 13:53:00;;;;;;;29.70;18.55;;;7.60;25.40;;;;;;5012603;28;20166;-49
2022/12/15 13:55:38;;;;;;;27.20;17.85;;;7.30;25.90;;;;;;4932681;29;20253;-50
2022/12/15 13:58:15;;;;;;;24.48;16.73;;;7.00;26.50;;;;;;4933159;29;20182;-48
2022/12/15 14:00:55;;;;;;;30.48;17.98;;;6.70;26.60;;;;;;4933070;29;20290;-48
2022/12/15 14:03:22;;;;;;;26.80;16.67;;;6.40;27.10;;;;;;4932601;29;20177;-48
2022/12/15 14:05:52;;;;;;;26.75;17.20;;;6.10;27.50;;;;;;4932766;29;20213;-49
2022/12/15 14:08:19;;;;;;;28.38;17.15;;;5.90;28.00;;;;;;4932895;29;20217;-48
2022/12/15 14:10:51;;;;;;;33.13;20.05;;;5.70;28.10;;;;;;4932786;29;20747;-48
2022/12/15 14:13:26;;;;;;;34.90;24.02;;;5.60;27.80;;;;;;4932490;29;20244;-49
2022/12/15 14:15:58;;;;;;;38.72;25.90;;;5.40;27.80;;;;;;4932559;29;20283;-49
2022/12/15 14:18:33;;;;;;;32.88;21.58;;;5.10;28.10;;;;;;4932802;29;20256;-49
2022/12/15 14:21:03;;;;;;;33.10;22.02;;;4.90;28.50;;;;;;4932830;29;20677;-49
2022/12/15 14:23:39;;;;;;;32.47;20.73;;;4.70;28.80;;;;;;4932440;29;20184;-49
2022/12/15 14:26:08;;;;;;;23.13;16.58;;;4.60;29.10;;;;;;4932508;29;20197;-48
2022/12/15 14:28:42;;;;;;;30.48;20.88;;;4.40;29.70;;;;;;4944526;28;20179;-48
2022/12/15 14:31:21;;;;;;;27.95;19.85;;;4.30;30.00;;;;;;5012352;28;20169;-48
2022/12/15 14:33:59;;;;;;;37.33;20.75;;;4.20;30.10;;;;;;5012088;28;20155;-49
2022/12/15 14:36:25;;;;;;;29.58;18.35;;;4.00;30.20;;;;;;5012034;28;20191;-48
2022/12/15 14:38:53;;;;;;;30.42;21.05;;;3.90;30.40;;;;;;5012070;28;20171;-48
2022/12/15 14:41:25;;;;;;;33.50;19.27;;;3.80;30.40;;;;;;5012131;28;20171;-50
2022/12/15 14:43:54;;;;;;;37.83;19.75;;;3.70;30.70;;;;;;5012037;28;20171;-49
2022/12/15 14:46:25;;;;;;;31.65;19.10;;;3.60;30.80;;;;;;5012030;28;20202;-48
2022/12/15 14:49:04;;;;;;;26.15;17.13;;;3.50;30.70;;;;;;5012189;28;20245;-49
2022/12/15 14:51:43;;;;;;;31.27;18.13;;;3.40;30.80;;;;;;5012052;28;20245;-48
2022/12/15 14:54:49;;;;;;;30.27;18.83;;;3.30;31.10;;;;;;5011674;28;20204;-49
2022/12/15 14:57:24;;;;;;;36.22;21.02;;;3.10;31.20;;;;;;5015799;28;20201;-49
2022/12/15 14:59:51;;;;;;;35.28;18.90;;;3.00;31.30;;;;;;5016100;28;20255;-48
2022/12/15 15:02:25;;;;;;;32.92;19.40;;;2.90;31.50;;;;;;5015884;28;20172;-49
2022/12/15 15:04:59;;;;;;;33.08;20.00;;;2.80;31.60;;;;;;5016110;28;20312;-48
2022/12/15 15:07:27;;;;;;;34.78;19.23;;;2.70;31.70;;;;;;5015798;28;20182;-48
2022/12/15 15:09:53;;;;;;;42.00;21.55;;;2.60;31.60;;;;;;5015941;28;20171;-48
2022/12/15 15:12:22;;;;;;;36.67;20.85;;;2.50;31.80;;;;;;5015655;28;20176;-50
2022/12/15 15:14:59;;;;;;;32.72;19.95;;;2.50;31.80;;;;;;5015718;28;20284;-48
2022/12/15 15:17:53;;;;;;;40.25;22.08;;;2.40;31.90;;;;;;5015768;28;20150;-48
2022/12/15 15:20:36;;;;;;;41.58;23.58;;;2.30;32.10;;;;;;5015620;28;20241;-48
2022/12/15 15:23:02;;;;;;;35.67;21.52;;;2.20;32.10;;;;;;5015533;28;20169;-48
2022/12/15 15:25:39;;;;;;;36.30;22.70;;;2.10;32.10;;;;;;5015538;28;20193;-49
2022/12/15 15:28:17;;;;;;;38.58;23.58;;;2.00;32.10;;;;;;5015606;28;20200;-48
2022/12/15 15:31:03;;;;;;;52.60;26.38;;;2.00;32.10;;;;;;5015577;28;20709;-48